Time;durP1;ratioP1;P1;durP2;ratioP2;P2;SDS_P1;SDS_P2;PMS_P1;PMS_P2;Temp;Humidity;BMP_temperature;BMP_pressure;BME280_temperature;BME280_humidity;BME280_pressure;Samples;Min_cycle;Max_cycle;Signal;HPM_P1;HPM_P2
2022/08/18 00:02:13;;;;;;;7.20;3.55;;;;;;;;;;4338922;32;20516;-68
2022/08/18 00:04:41;;;;;;;5.53;3.22;;;;;;;;;;4363846;32;20531;-68
2022/08/18 00:07:11;;;;;;;4.75;3.25;;;;;;;;;;4352392;32;20077;-69
2022/08/18 00:09:39;;;;;;;4.55;2.80;;;;;;;;;;4364093;32;20121;-68
2022/08/18 00:12:27;;;;;;;6.82;3.47;;;;;;;;;;4363367;32;20090;-68
2022/08/18 00:14:55;;;;;;;5.62;3.25;;;;;;;;;;4338450;32;20162;-69
2022/08/18 00:17:21;;;;;;;6.30;3.20;;;;;;;;;;4377326;32;20081;-67
2022/08/18 00:19:49;;;;;;;5.72;3.58;;;;;;;;;;4351028;32;20141;-68
2022/08/18 00:22:19;;;;;;;6.18;3.25;;;;;;;;;;4376137;32;20508;-68
2022/08/18 00:24:51;;;;;;;6.57;2.80;;;;;;;;;;4370072;32;20085;-69
2022/08/18 00:27:23;;;;;;;5.53;3.35;;;;;;;;;;4371177;32;20097;-68
2022/08/18 00:29:50;;;;;;;7.78;3.42;;;;;;;;;;4369356;32;20098;-69
2022/08/18 00:32:22;;;;;;;5.05;2.97;;;;;;;;;;4363223;32;20089;-69
2022/08/18 00:34:49;;;;;;;6.70;3.20;;;;;;;;;;4362595;32;20105;-68
2022/08/18 00:37:16;;;;;;;7.80;3.37;;;;;;;;;;4362809;32;20085;-68
2022/08/18 00:39:42;;;;;;;5.47;3.30;;;;;;;;;;4363097;32;20075;-68
2022/08/18 00:42:19;;;;;;;8.27;4.18;;;;;;;;;;4376578;32;20142;-68
2022/08/18 00:44:45;;;;;;;4.90;3.20;;;;;;;;;;4375313;32;20148;-68
2022/08/18 00:47:12;;;;;;;9.20;3.00;;;;;;;;;;4375148;32;20137;-67
2022/08/18 00:49:41;;;;;;;6.80;3.45;;;;;;;;;;4377012;32;20167;-68
2022/08/18 00:52:09;;;;;;;7.78;3.62;;;;;;;;;;4362832;32;20127;-68
2022/08/18 00:54:39;;;;;;;7.80;3.25;;;;;;;;;;4363862;32;20073;-67
2022/08/18 00:57:07;;;;;;;6.25;3.25;;;;;;;;;;4363356;32;20104;-69
2022/08/18 00:59:44;;;;;;;5.00;3.25;;;;;;;;;;4362549;32;20588;-68
2022/08/18 01:02:20;;;;;;;4.07;3.17;;;;;;;;;;4362880;32;20078;-69
2022/08/18 01:04:52;;;;;;;;;;;;;;;;;;4363112;32;20070;-68
2022/08/18 01:07:32;;;;;;;5.35;3.50;;;;;;;;;;4376793;32;19985;-68
2022/08/18 01:09:59;;;;;;;5.20;3.20;;;;;;;;;;4362349;32;20145;-68
2022/08/18 01:12:27;;;;;;;8.45;3.30;;;;;;;;;;4376309;32;20515;-67
2022/08/18 01:14:54;;;;;;;5.05;2.85;;;;;;;;;;4363189;32;20175;-67
2022/08/18 01:23:04;;;;;;;11.32;3.50;;;;;;;;;;4365473;32;20077;-68
2022/08/18 01:28:19;;;;;;;7.03;3.65;;;;;;;;;;4364752;32;20520;-68
2022/08/18 01:30:59;;;;;;;10.25;3.45;;;;;;;;;;4350661;32;20077;-68
2022/08/18 01:33:31;;;;;;;11.18;4.00;;;;;;;;;;4362356;32;20149;-68
2022/08/18 01:35:59;;;;;;;7.32;4.07;;;;;;;;;;4362648;32;20168;-67
2022/08/18 01:38:26;;;;;;;7.05;3.40;;;;;;;;;;4350027;32;20102;-67
2022/08/18 01:40:53;;;;;;;7.18;3.72;;;;;;;;;;4349773;32;20142;-67
2022/08/18 01:43:20;;;;;;;8.20;3.65;;;;;;;;;;4362231;32;20082;-68
2022/08/18 01:45:48;;;;;;;7.45;4.07;;;;;;;;;;4349831;32;20517;-67
2022/08/18 01:48:15;;;;;;;8.27;3.90;;;;;;;;;;4374962;32;20154;-67
2022/08/18 01:50:43;;;;;;;7.20;3.83;;;;;;;;;;4349724;32;20085;-68
2022/08/18 01:53:10;;;;;;;8.65;4.28;;;;;;;;;;4349920;32;20081;-68
2022/08/18 01:55:43;;;;;;;8.02;3.97;;;;;;;;;;4362288;32;20077;-67
2022/08/18 01:58:11;;;;;;;7.05;3.47;;;;;;;;;;4350346;32;20084;-68
2022/08/18 02:00:37;;;;;;;7.47;3.60;;;;;;;;;;4362222;32;20066;-68
2022/08/18 02:03:07;;;;;;;7.50;3.90;;;;;;;;;;4375812;32;20069;-68
2022/08/18 02:05:37;;;;;;;5.87;3.83;;;;;;;;;;4362322;32;20089;-68
2022/08/18 02:08:05;;;;;;;6.18;3.95;;;;;;;;;;4362806;32;20074;-69
2022/08/18 02:10:32;;;;;;;8.77;3.60;;;;;;;;;;4349802;32;20078;-68
2022/08/18 02:12:58;;;;;;;6.93;3.37;;;;;;;;;;4362784;32;20083;-68
2022/08/18 02:15:25;;;;;;;5.55;3.17;;;;;;;;;;4362193;32;20097;-68
2022/08/18 02:17:52;;;;;;;5.62;3.50;;;;;;;;;;4376077;32;20081;-68
2022/08/18 02:20:19;;;;;;;4.80;3.10;;;;;;;;;;4376694;32;20064;-68
2022/08/18 02:22:47;;;;;;;8.10;3.30;;;;;;;;;;4365115;32;20561;-68
2022/08/18 02:25:14;;;;;;;7.55;3.95;;;;;;;;;;4365043;32;20082;-68
2022/08/18 02:27:41;;;;;;;4.93;3.28;;;;;;;;;;4364703;32;20154;-68
2022/08/18 02:30:11;;;;;;;7.72;3.72;;;;;;;;;;4378937;32;20101;-68
2022/08/18 02:32:38;;;;;;;7.95;3.55;;;;;;;;;;4364792;32;20073;-68
2022/08/18 02:35:06;;;;;;;6.43;3.45;;;;;;;;;;4364488;32;20100;-68
2022/08/18 02:37:33;;;;;;;9.40;4.00;;;;;;;;;;4364828;32;20074;-68
2022/08/18 02:39:59;;;;;;;6.87;3.42;;;;;;;;;;4364754;32;20150;-68
2022/08/18 02:42:28;;;;;;;6.78;3.50;;;;;;;;;;4365482;32;20075;-69
2022/08/18 02:44:54;;;;;;;7.87;3.30;;;;;;;;;;4378514;32;20525;-68
2022/08/18 02:47:21;;;;;;;5.78;3.60;;;;;;;;;;4364587;32;20066;-68
2022/08/18 02:49:49;;;;;;;7.22;3.90;;;;;;;;;;4340166;32;20081;-68
2022/08/18 02:52:16;;;;;;;8.85;3.70;;;;;;;;;;4364557;32;20077;-68
2022/08/18 02:54:42;;;;;;;5.50;3.35;;;;;;;;;;4376792;32;20169;-68
2022/08/18 02:57:11;;;;;;;5.85;3.50;;;;;;;;;;4364183;32;20106;-69
2022/08/18 02:59:38;;;;;;;7.70;2.90;;;;;;;;;;4364726;32;20538;-68
2022/08/18 03:02:06;;;;;;;8.38;3.37;;;;;;;;;;4352108;32;20601;-69
2022/08/18 03:04:34;;;;;;;5.05;3.40;;;;;;;;;;4368838;32;20081;-68
2022/08/18 03:07:03;;;;;;;6.25;3.10;;;;;;;;;;4369919;32;20074;-68
2022/08/18 03:09:30;;;;;;;6.57;3.47;;;;;;;;;;4365891;32;20081;-68
2022/08/18 03:11:58;;;;;;;6.53;3.37;;;;;;;;;;4378191;32;20097;-68
2022/08/18 03:14:25;;;;;;;6.80;3.53;;;;;;;;;;4364645;32;20093;-68
2022/08/18 03:16:51;;;;;;;11.07;4.10;;;;;;;;;;4377861;32;20141;-68
2022/08/18 03:19:19;;;;;;;6.65;3.72;;;;;;;;;;4377787;32;20092;-68
2022/08/18 03:21:46;;;;;;;5.68;3.40;;;;;;;;;;4363701;32;20613;-67
2022/08/18 03:24:13;;;;;;;4.62;3.40;;;;;;;;;;4351663;32;20074;-68
2022/08/18 03:26:42;;;;;;;5.30;2.70;;;;;;;;;;4339342;32;20085;-68
2022/08/18 03:29:10;;;;;;;5.12;2.83;;;;;;;;;;4377736;32;20467;-68
2022/08/18 03:31:37;;;;;;;5.95;2.85;;;;;;;;;;4364292;32;20100;-68
2022/08/18 03:34:07;;;;;;;5.47;3.03;;;;;;;;;;4377972;32;20519;-68
2022/08/18 03:36:35;;;;;;;8.02;2.92;;;;;;;;;;4351607;32;20085;-69
2022/08/18 03:39:05;;;;;;;11.65;3.30;;;;;;;;;;4376474;32;20153;-68
2022/08/18 03:41:32;;;;;;;6.62;3.28;;;;;;;;;;4363689;32;20506;-68
2022/08/18 03:43:59;;;;;;;4.20;2.65;;;;;;;;;;4351718;32;20097;-68
2022/08/18 03:46:27;;;;;;;5.12;2.83;;;;;;;;;;4364535;32;20093;-68
2022/08/18 03:48:57;;;;;;;7.68;2.50;;;;;;;;;;4363926;32;20081;-68
2022/08/18 03:51:26;;;;;;;5.68;2.67;;;;;;;;;;4363817;32;20078;-68
2022/08/18 03:53:54;;;;;;;6.57;3.12;;;;;;;;;;4363427;32;20531;-67
2022/08/18 03:56:23;;;;;;;4.95;2.67;;;;;;;;;;4363576;32;20505;-67
2022/08/18 03:59:02;;;;;;;10.75;2.70;;;;;;;;;;4364076;32;20451;-66
2022/08/18 04:01:31;;;;;;;3.58;2.47;;;;;;;;;;4363496;32;20135;-68
2022/08/18 04:04:01;;;;;;;5.22;2.92;;;;;;;;;;4363531;32;20521;-68
2022/08/18 04:06:39;;;;;;;4.57;2.70;;;;;;;;;;4364211;32;20448;-68
2022/08/18 04:09:08;;;;;;;6.20;2.85;;;;;;;;;;4363268;32;20161;-68
2022/08/18 04:11:36;;;;;;;5.68;2.78;;;;;;;;;;4363772;32;20089;-68
2022/08/18 04:14:04;;;;;;;5.07;2.70;;;;;;;;;;4363305;32;20154;-68
2022/08/18 04:16:32;;;;;;;6.00;3.17;;;;;;;;;;4363300;32;20480;-68
2022/08/18 04:19:01;;;;;;;7.10;2.62;;;;;;;;;;4363172;32;20100;-68
2022/08/18 04:21:32;;;;;;;5.35;2.80;;;;;;;;;;4363474;32;20083;-68
2022/08/18 04:24:03;;;;;;;4.95;2.58;;;;;;;;;;4363401;32;20091;-67
2022/08/18 04:26:37;;;;;;;6.10;2.37;;;;;;;;;;4364241;32;20098;-68
2022/08/18 04:29:05;;;;;;;9.18;2.47;;;;;;;;;;4363070;32;20475;-67
2022/08/18 04:31:32;;;;;;;5.55;2.60;;;;;;;;;;4363004;32;20512;-69
2022/08/18 04:34:00;;;;;;;3.40;2.28;;;;;;;;;;4337780;32;20093;-68
2022/08/18 04:36:27;;;;;;;3.10;2.00;;;;;;;;;;4363615;32;20097;-68
2022/08/18 04:38:54;;;;;;;5.90;2.37;;;;;;;;;;4350431;32;20527;-68
2022/08/18 04:41:26;;;;;;;4.70;2.12;;;;;;;;;;4363026;32;20143;-68
2022/08/18 04:44:00;;;;;;;6.10;2.40;;;;;;;;;;4350611;32;20098;-68
2022/08/18 04:46:28;;;;;;;6.12;2.55;;;;;;;;;;4376668;32;20063;-68
2022/08/18 04:48:57;;;;;;;6.50;2.60;;;;;;;;;;4375290;32;20077;-68
2022/08/18 04:51:27;;;;;;;7.12;2.60;;;;;;;;;;4363017;32;20074;-67
2022/08/18 04:53:54;;;;;;;5.87;2.60;;;;;;;;;;4376595;32;20093;-68
2022/08/18 04:56:29;;;;;;;4.85;2.42;;;;;;;;;;4362848;32;20098;-68
2022/08/18 04:58:59;;;;;;;5.68;2.53;;;;;;;;;;4362651;32;20077;-69
2022/08/18 05:01:30;;;;;;;4.62;2.12;;;;;;;;;;4362847;32;20061;-68
2022/08/18 05:03:57;;;;;;;3.67;2.08;;;;;;;;;;4362681;32;20146;-68
2022/08/18 05:06:26;;;;;;;5.47;2.55;;;;;;;;;;4350281;32;20081;-67
2022/08/18 05:08:54;;;;;;;4.07;1.92;;;;;;;;;;4350633;32;20081;-68
2022/08/18 05:11:22;;;;;;;3.25;1.73;;;;;;;;;;4362426;32;20155;-69
2022/08/18 05:13:50;;;;;;;3.25;2.35;;;;;;;;;;4362506;32;20163;-68
2022/08/18 05:16:16;;;;;;;5.00;2.37;;;;;;;;;;4363272;32;20159;-68
2022/08/18 05:18:43;;;;;;;4.20;2.35;;;;;;;;;;4376542;32;20084;-68
2022/08/18 05:21:12;;;;;;;3.55;2.28;;;;;;;;;;4376370;32;20157;-68
2022/08/18 05:23:42;;;;;;;5.95;2.25;;;;;;;;;;4338188;32;20093;-68
2022/08/18 05:26:10;;;;;;;5.75;2.60;;;;;;;;;;4363067;32;20077;-68
2022/08/18 05:28:37;;;;;;;7.10;2.28;;;;;;;;;;4362661;32;20150;-68
2022/08/18 05:31:15;;;;;;;8.10;2.80;;;;;;;;;;4362337;32;20074;-68
2022/08/18 05:33:42;;;;;;;5.97;2.90;;;;;;;;;;4362668;32;20077;-68
2022/08/18 05:36:46;;;;;;;6.97;2.55;;;;;;;;;;4350121;32;20512;-68
2022/08/18 05:39:25;;;;;;;7.10;2.60;;;;;;;;;;4369513;32;20151;-68
2022/08/18 05:42:01;;;;;;;5.87;3.00;;;;;;;;;;4356308;32;20070;-68
2022/08/18 05:44:30;;;;;;;7.43;2.40;;;;;;;;;;4364304;32;20065;-68
2022/08/18 05:47:06;;;;;;;6.62;2.72;;;;;;;;;;4376063;32;20080;-68
2022/08/18 05:49:34;;;;;;;5.10;2.20;;;;;;;;;;4362313;32;20175;-69
2022/08/18 05:52:04;;;;;;;6.07;2.72;;;;;;;;;;4362707;32;20078;-68
2022/08/18 05:57:24;;;;;;;4.72;2.40;;;;;;;;;;4367109;32;20425;-69
2022/08/18 05:59:52;;;;;;;4.50;2.30;;;;;;;;;;4365227;32;20504;-68
2022/08/18 06:02:31;;;;;;;5.25;2.83;;;;;;;;;;4353073;32;20090;-68
2022/08/18 06:05:06;;;;;;;4.55;2.40;;;;;;;;;;4366066;32;20074;-68
2022/08/18 06:07:54;;;;;;;4.78;2.28;;;;;;;;;;4353019;32;20082;-68
2022/08/18 06:10:21;;;;;;;5.78;2.67;;;;;;;;;;4365424;32;20179;-68
2022/08/18 06:12:59;;;;;;;5.10;2.35;;;;;;;;;;4364937;32;20062;-67
2022/08/18 06:15:34;;;;;;;4.10;2.35;;;;;;;;;;4352659;32;20078;-68
2022/08/18 06:18:19;;;;;;;3.17;2.42;;;;;;;;;;4379123;32;20070;-69
2022/08/18 06:21:13;;;;;;;5.62;2.30;;;;;;;;;;4364822;32;20081;-68
2022/08/18 06:24:01;;;;;;;5.10;2.60;;;;;;;;;;4362602;32;20450;-68
2022/08/18 06:26:55;;;;;;;4.57;2.25;;;;;;;;;;4365025;32;20093;-69
2022/08/18 06:29:25;;;;;;;3.42;2.47;;;;;;;;;;4378759;32;20078;-68
2022/08/18 06:32:27;;;;;;;6.05;2.37;;;;;;;;;;4378456;32;20082;-68
2022/08/18 06:35:07;;;;;;;3.87;2.30;;;;;;;;;;4377809;32;20089;-68
2022/08/18 06:40:36;;;;;;;4.97;2.30;;;;;;;;;;4354018;32;20073;-68
2022/08/18 06:43:04;;;;;;;3.70;2.12;;;;;;;;;;4378484;32;20066;-68
2022/08/18 06:45:34;;;;;;;4.65;3.00;;;;;;;;;;4364423;32;20092;-68
2022/08/18 06:48:06;;;;;;;5.75;2.72;;;;;;;;;;4364419;32;20094;-68
2022/08/18 06:50:41;;;;;;;5.10;2.30;;;;;;;;;;4340002;32;20093;-67
2022/08/18 06:53:08;;;;;;;4.20;2.25;;;;;;;;;;4352175;32;20167;-67
2022/08/18 06:55:40;;;;;;;5.05;2.65;;;;;;;;;;4376491;32;20445;-69
2022/08/18 06:58:19;;;;;;;6.70;2.40;;;;;;;;;;4352295;32;20078;-68
2022/08/18 07:00:51;;;;;;;3.97;1.65;;;;;;;;;;4378419;32;20496;-68
2022/08/18 07:03:49;;;;;;;5.40;2.50;;;;;;;;;;4378033;32;20453;-67
2022/08/18 07:06:21;;;;;;;3.33;1.80;;;;;;;;;;4351676;32;20074;-68
2022/08/18 07:08:52;;;;;;;3.55;2.10;;;;;;;;;;4378291;32;20145;-68
2022/08/18 07:11:20;;;;;;;4.47;2.05;;;;;;;;;;4364820;32;20081;-68
2022/08/18 07:13:53;;;;;;;5.43;1.90;;;;;;;;;;4364184;32;20093;-68
2022/08/18 07:16:33;;;;;;;4.97;2.15;;;;;;;;;;4377905;32;20081;-70
2022/08/18 07:19:15;;;;;;;5.45;2.00;;;;;;;;;;4339974;32;20142;-68
2022/08/18 07:21:42;;;;;;;2.95;1.87;;;;;;;;;;4351888;32;20086;-68
2022/08/18 07:24:28;;;;;;;7.12;2.10;;;;;;;;;;4339408;32;20584;-68
2022/08/18 07:27:22;;;;;;;2.57;1.90;;;;;;;;;;4364261;32;20061;-67
2022/08/18 07:30:00;;;;;;;4.20;2.15;;;;;;;;;;4362505;32;20086;-67
2022/08/18 07:32:53;;;;;;;5.75;2.25;;;;;;;;;;4363647;32;20073;-69
2022/08/18 07:35:29;;;;;;;4.53;2.20;;;;;;;;;;4358253;32;20446;-68
2022/08/18 07:38:00;;;;;;;7.00;2.67;;;;;;;;;;4334446;33;20172;-68
2022/08/18 07:40:33;;;;;;;6.30;2.70;;;;;;;;;;4334795;33;20155;-68
2022/08/18 07:43:26;;;;;;;7.75;2.37;;;;;;;;;;4346334;33;20531;-68
2022/08/18 07:45:56;;;;;;;4.35;2.00;;;;;;;;;;4346673;33;20109;-68
2022/08/18 07:48:31;;;;;;;5.12;1.77;;;;;;;;;;4346660;33;20081;-69
2022/08/18 07:51:27;;;;;;;7.57;2.50;;;;;;;;;;4334337;33;20082;-68
2022/08/18 07:54:19;;;;;;;4.07;2.20;;;;;;;;;;4344568;32;20094;-67
2022/08/18 07:56:59;;;;;;;4.35;2.10;;;;;;;;;;4338959;32;20063;-67
2022/08/18 07:59:35;;;;;;;4.68;2.35;;;;;;;;;;4335182;33;20171;-68
2022/08/18 08:02:17;;;;;;;5.07;2.40;;;;;;;;;;4347756;32;20516;-67
2022/08/18 08:05:06;;;;;;;8.23;2.70;;;;;;;;;;4346218;33;20098;-67
2022/08/18 08:07:41;;;;;;;4.47;2.50;;;;;;;;;;4346238;33;20513;-67
2022/08/18 08:13:12;;;;;;;7.43;3.05;;;;;;;;;;3839282;37;20629;-67
2022/08/18 08:16:00;;;;;;;5.20;2.47;;;;;;;;;;4395721;32;20073;-67
2022/08/18 08:18:56;;;;;;;5.05;2.70;;;;;;;;;;4383296;32;20085;-67
2022/08/18 08:21:24;;;;;;;5.75;2.92;;;;;;;;;;4379660;32;20074;-68
2022/08/18 08:24:09;;;;;;;8.70;2.58;;;;;;;;;;4365471;32;20078;-68
2022/08/18 08:27:06;;;;;;;4.55;2.22;;;;;;;;;;4365289;32;20088;-68
2022/08/18 08:30:21;;;;;;;5.80;2.50;;;;;;;;;;4390132;32;20481;-68
2022/08/18 08:33:08;;;;;;;3.92;2.17;;;;;;;;;;4327165;33;20101;-67
2022/08/18 08:35:49;;;;;;;3.80;2.12;;;;;;;;;;4385624;32;20137;-69
2022/08/18 08:38:26;;;;;;;5.72;2.60;;;;;;;;;;4390127;32;20089;-68
2022/08/18 08:41:13;;;;;;;4.78;2.22;;;;;;;;;;4404303;32;20150;-68
2022/08/18 08:43:53;;;;;;;6.97;2.60;;;;;;;;;;4390594;32;20085;-68
2022/08/18 08:46:22;;;;;;;5.87;2.58;;;;;;;;;;4377483;32;20141;-68
2022/08/18 08:48:55;;;;;;;5.25;2.47;;;;;;;;;;4377164;32;20065;-68
2022/08/18 08:51:34;;;;;;;2.95;1.98;;;;;;;;;;4377424;32;20169;-68
2022/08/18 08:54:11;;;;;;;5.62;2.20;;;;;;;;;;4390014;32;20092;-68
2022/08/18 08:56:46;;;;;;;5.55;2.22;;;;;;;;;;4377043;32;20100;-68
2022/08/18 08:59:16;;;;;;;4.25;1.98;;;;;;;;;;4377831;32;20077;-68
2022/08/18 09:02:06;;;;;;;4.10;2.00;;;;;;;;;;4377040;32;20089;-67
2022/08/18 09:05:08;;;;;;;2.55;2.00;;;;;;;;;;4403743;32;20525;-68
2022/08/18 09:07:53;;;;;;;2.00;1.80;;;;;;;;;;4373499;32;20172;-68
2022/08/18 09:10:23;;;;;;;2.87;1.83;;;;;;;;;;4389521;32;20078;-68
2022/08/18 09:13:29;;;;;;;3.83;1.95;;;;;;;;;;4377182;32;20101;-68
2022/08/18 09:16:33;;;;;;;5.70;2.17;;;;;;;;;;4377181;32;20463;-69
2022/08/18 09:19:12;;;;;;;3.75;2.40;;;;;;;;;;4389564;32;20074;-67
2022/08/18 09:22:04;;;;;;;3.58;2.08;;;;;;;;;;4403289;32;20085;-67
2022/08/18 09:24:40;;;;;;;5.35;2.45;;;;;;;;;;4383367;32;20073;-68
2022/08/18 09:27:14;;;;;;;;;;;;;;;;;;4367845;32;20146;-67
2022/08/18 09:29:58;;;;;;;9.30;1.92;;;;;;;;;;4380303;32;19965;-67
2022/08/18 09:32:25;;;;;;;7.40;2.45;;;;;;;;;;4366478;32;20508;-66
2022/08/18 09:35:11;;;;;;;4.57;2.03;;;;;;;;;;4379677;32;20082;-66
2022/08/18 09:44:09;;;;;;;5.18;2.30;;;;;;;;;;4381160;32;20085;-65
2022/08/18 09:46:42;;;;;;;4.80;1.92;;;;;;;;;;4393874;32;20134;-66
2022/08/18 09:49:24;;;;;;;2.42;1.98;;;;;;;;;;4379883;32;20062;-65
2022/08/18 09:51:53;;;;;;;8.57;2.35;;;;;;;;;;4366464;32;20082;-66
2022/08/18 09:54:24;;;;;;;8.63;2.53;;;;;;;;;;4354079;32;20077;-65
2022/08/18 09:56:50;;;;;;;5.85;2.20;;;;;;;;;;4378682;32;20155;-67
2022/08/18 09:59:51;;;;;;;3.90;2.45;;;;;;;;;;4392875;32;20078;-65
2022/08/18 10:02:30;;;;;;;4.47;2.03;;;;;;;;;;4339247;32;20101;-66
2022/08/18 10:05:18;;;;;;;2.65;2.12;;;;;;;;;;4379661;32;20077;-67
2022/08/18 10:08:13;;;;;;;5.57;1.95;;;;;;;;;;4379384;32;20090;-65
2022/08/18 10:10:51;;;;;;;6.00;2.40;;;;;;;;;;4365885;32;20496;-66
2022/08/18 10:13:46;;;;;;;3.45;1.80;;;;;;;;;;4354100;32;20167;-66
2022/08/18 10:16:57;;;;;;;3.92;2.33;;;;;;;;;;4378773;32;20066;-66
2022/08/18 10:19:36;;;;;;;7.45;2.28;;;;;;;;;;4365921;32;20081;-63
2022/08/18 10:22:05;;;;;;;5.97;2.40;;;;;;;;;;4382601;32;20468;-63
2022/08/18 10:24:38;;;;;;;6.70;2.40;;;;;;;;;;4377492;32;20069;-63
2022/08/18 10:27:07;;;;;;;3.47;2.60;;;;;;;;;;4363612;32;20066;-63
2022/08/18 10:29:46;;;;;;;4.37;2.72;;;;;;;;;;4363541;32;20070;-63
2022/08/18 10:32:13;;;;;;;3.58;2.60;;;;;;;;;;4350686;32;20171;-63
2022/08/18 10:34:51;;;;;;;3.28;2.33;;;;;;;;;;4350675;32;20128;-62
2022/08/18 10:37:26;;;;;;;3.53;2.53;;;;;;;;;;4363530;32;20078;-63
2022/08/18 10:40:16;;;;;;;5.82;2.83;;;;;;;;;;4363820;32;20076;-63
2022/08/18 10:43:00;;;;;;;5.10;2.80;;;;;;;;;;4338469;32;20101;-63
2022/08/18 10:45:33;;;;;;;3.10;2.25;;;;;;;;;;4363488;32;20064;-61
2022/08/18 10:48:22;;;;;;;3.67;2.50;;;;;;;;;;4362968;32;20065;-63
2022/08/18 10:50:51;;;;;;;3.33;2.60;;;;;;;;;;4378302;32;20119;-62
2022/08/18 10:53:53;;;;;;;3.90;2.60;;;;;;;;;;4378400;32;20120;-62
2022/08/18 10:56:23;;;;;;;4.53;2.55;;;;;;;;;;4327677;32;20078;-61
2022/08/18 10:59:04;;;;;;;4.45;2.70;;;;;;;;;;4378370;32;20090;-62
2022/08/18 11:02:09;;;;;;;7.37;2.55;;;;;;;;;;4392370;32;20078;-62
2022/08/18 11:04:46;;;;;;;4.22;2.58;;;;;;;;;;4378099;32;20073;-62
2022/08/18 11:07:22;;;;;;;5.22;3.10;;;;;;;;;;4365413;32;20073;-62
2022/08/18 11:09:54;;;;;;;5.43;2.70;;;;;;;;;;4378019;32;20081;-64
2022/08/18 11:12:49;;;;;;;4.05;2.45;;;;;;;;;;4377411;32;20128;-62
2022/08/18 11:15:31;;;;;;;3.72;2.42;;;;;;;;;;4391842;32;20078;-62
2022/08/18 11:18:14;;;;;;;4.03;2.58;;;;;;;;;;4365553;32;20076;-64
2022/08/18 11:20:42;;;;;;;2.83;2.40;;;;;;;;;;4365197;32;20570;-65
2022/08/18 11:23:15;;;;;;;3.40;2.37;;;;;;;;;;4362911;32;20505;-63
2022/08/18 11:25:43;;;;;;;9.38;2.90;;;;;;;;;;4338704;32;20089;-63
2022/08/18 11:28:22;;;;;;;2.95;2.45;;;;;;;;;;4350560;32;20550;-62
2022/08/18 11:30:51;;;;;;;3.33;2.60;;;;;;;;;;4337925;32;20098;-64
2022/08/18 11:33:20;;;;;;;4.65;2.55;;;;;;;;;;4346899;32;20516;-65
2022/08/18 11:35:58;;;;;;;4.62;2.80;;;;;;;;;;4363687;32;20593;-64
2022/08/18 11:38:27;;;;;;;3.35;2.55;;;;;;;;;;4368337;32;20070;-64
2022/08/18 11:41:14;;;;;;;4.70;2.62;;;;;;;;;;4388829;32;20105;-64
2022/08/18 11:43:42;;;;;;;5.68;2.92;;;;;;;;;;4365600;32;20585;-66
2022/08/18 11:46:26;;;;;;;6.97;3.00;;;;;;;;;;4392100;32;20089;-66
2022/08/18 11:48:52;;;;;;;7.05;2.70;;;;;;;;;;4364974;32;20129;-64
2022/08/18 11:51:23;;;;;;;4.18;2.92;;;;;;;;;;4377579;32;20097;-65
2022/08/18 11:53:49;;;;;;;6.43;3.12;;;;;;;;;;4365595;32;20444;-64
2022/08/18 11:56:24;;;;;;;4.75;3.35;;;;;;;;;;4377272;32;20139;-63
2022/08/18 11:58:59;;;;;;;4.37;2.72;;;;;;;;;;4376148;32;20165;-65
2022/08/18 12:01:47;;;;;;;5.30;2.90;;;;;;;;;;4377327;32;20465;-65
2022/08/18 12:04:21;;;;;;;4.72;2.50;;;;;;;;;;4376223;32;20114;-66
2022/08/18 12:07:02;;;;;;;4.22;2.60;;;;;;;;;;4363638;32;20142;-66
2022/08/18 12:09:42;;;;;;;5.30;2.70;;;;;;;;;;4374243;32;20499;-66
2022/08/18 12:12:32;;;;;;;4.40;2.70;;;;;;;;;;4349678;32;20077;-65
2022/08/18 12:15:15;;;;;;;3.90;2.55;;;;;;;;;;4380796;32;20082;-64
2022/08/18 12:17:44;;;;;;;6.10;2.58;;;;;;;;;;4372526;32;20070;-63
2022/08/18 12:20:12;;;;;;;6.12;2.67;;;;;;;;;;4361788;32;20081;-64
2022/08/18 12:22:41;;;;;;;5.47;2.70;;;;;;;;;;4362036;32;20140;-64
2022/08/18 12:25:13;;;;;;;8.70;2.85;;;;;;;;;;4377128;32;20147;-63
2022/08/18 12:27:40;;;;;;;3.97;2.67;;;;;;;;;;4344309;32;20120;-64
2022/08/18 12:30:08;;;;;;;3.20;2.40;;;;;;;;;;4376215;32;20438;-64
2022/08/18 12:32:37;;;;;;;5.25;2.50;;;;;;;;;;4375230;32;20455;-64
2022/08/18 12:35:06;;;;;;;3.65;2.50;;;;;;;;;;4371611;32;20152;-65
2022/08/18 12:37:33;;;;;;;3.30;2.20;;;;;;;;;;4352048;32;20158;-65
2022/08/18 12:40:00;;;;;;;6.75;2.67;;;;;;;;;;4377278;32;20516;-62
2022/08/18 12:42:27;;;;;;;6.43;2.78;;;;;;;;;;4389853;32;20626;-66
2022/08/18 12:44:54;;;;;;;5.10;2.83;;;;;;;;;;4357019;32;20078;-70
2022/08/18 12:47:24;;;;;;;6.10;2.72;;;;;;;;;;4365372;32;20199;-67
2022/08/18 12:49:52;;;;;;;3.75;2.62;;;;;;;;;;4371388;32;20135;-64
2022/08/18 12:52:19;;;;;;;3.40;2.60;;;;;;;;;;4343609;32;20087;-65
2022/08/18 12:54:46;;;;;;;3.50;2.47;;;;;;;;;;4374490;32;20524;-65
2022/08/18 12:57:21;;;;;;;5.53;2.60;;;;;;;;;;4370459;32;20519;-64
2022/08/18 12:59:47;;;;;;;6.37;3.00;;;;;;;;;;4367360;32;20078;-66
2022/08/18 13:02:15;;;;;;;4.50;2.83;;;;;;;;;;4365029;32;20069;-65
2022/08/18 13:04:43;;;;;;;4.68;2.83;;;;;;;;;;4365211;32;20499;-64
2022/08/18 13:07:11;;;;;;;3.10;2.58;;;;;;;;;;4370440;32;20074;-65
2022/08/18 13:09:38;;;;;;;4.47;2.75;;;;;;;;;;4377491;32;20169;-65
2022/08/18 13:12:05;;;;;;;5.57;2.70;;;;;;;;;;4362136;32;20109;-65
2022/08/18 13:14:33;;;;;;;4.43;2.90;;;;;;;;;;4367273;32;20097;-65
2022/08/18 13:16:59;;;;;;;8.57;3.05;;;;;;;;;;4355252;32;20076;-64
2022/08/18 13:19:26;;;;;;;5.47;2.85;;;;;;;;;;4358658;32;20086;-66
2022/08/18 13:21:53;;;;;;;3.62;2.53;;;;;;;;;;4367193;32;20089;-66
2022/08/18 13:24:20;;;;;;;5.55;2.90;;;;;;;;;;4378168;32;20089;-65
2022/08/18 13:26:47;;;;;;;5.45;3.20;;;;;;;;;;4385742;32;20094;-66
2022/08/18 13:29:16;;;;;;;4.87;2.55;;;;;;;;;;4379032;32;20137;-64
2022/08/18 13:31:43;;;;;;;4.35;2.58;;;;;;;;;;4379234;32;20081;-63
2022/08/18 13:34:12;;;;;;;2.78;2.53;;;;;;;;;;4367260;32;20074;-63
2022/08/18 13:36:44;;;;;;;6.00;3.00;;;;;;;;;;4384075;32;20155;-63
2022/08/18 13:39:12;;;;;;;4.65;2.40;;;;;;;;;;4382129;32;20077;-62
2022/08/18 13:41:41;;;;;;;5.40;3.12;;;;;;;;;;4385218;32;20065;-64
2022/08/18 13:44:08;;;;;;;4.43;2.85;;;;;;;;;;4392669;32;20144;-64
2022/08/18 13:46:44;;;;;;;8.50;3.00;;;;;;;;;;4375370;32;20071;-64
2022/08/18 13:49:15;;;;;;;4.65;2.80;;;;;;;;;;4360738;32;20069;-64
2022/08/18 13:51:44;;;;;;;4.55;2.70;;;;;;;;;;4364560;32;20077;-64
2022/08/18 13:54:17;;;;;;;4.75;2.97;;;;;;;;;;4354844;32;20066;-64
2022/08/18 13:56:45;;;;;;;3.62;2.58;;;;;;;;;;4395654;32;20062;-63
2022/08/18 13:59:11;;;;;;;7.97;3.55;;;;;;;;;;4381342;32;20073;-65
2022/08/18 14:01:40;;;;;;;4.62;2.90;;;;;;;;;;4388497;32;20089;-66
2022/08/18 14:04:07;;;;;;;5.15;2.85;;;;;;;;;;4389443;32;20081;-65
2022/08/18 14:06:33;;;;;;;5.62;2.80;;;;;;;;;;4376839;32;20089;-65
2022/08/18 14:09:00;;;;;;;4.12;2.67;;;;;;;;;;4375701;32;20617;-64
2022/08/18 14:11:29;;;;;;;5.55;2.67;;;;;;;;;;4370058;32;20072;-65
2022/08/18 14:13:56;;;;;;;6.35;2.78;;;;;;;;;;4365816;32;20102;-72
2022/08/18 14:16:24;;;;;;;5.15;2.78;;;;;;;;;;4362627;32;20070;-65
2022/08/18 14:27:23;;;;;;;4.93;2.90;;;;;;;;;;4377832;32;20050;-67
2022/08/18 14:29:50;;;;;;;6.30;2.92;;;;;;;;;;4365511;32;20081;-67
2022/08/18 14:32:21;;;;;;;4.97;3.03;;;;;;;;;;4377517;32;20176;-67
2022/08/18 14:34:48;;;;;;;8.68;3.35;;;;;;;;;;4365649;32;20253;-67
2022/08/18 14:37:14;;;;;;;6.80;3.00;;;;;;;;;;4378099;32;20116;-66
2022/08/18 14:39:41;;;;;;;7.80;3.15;;;;;;;;;;4377492;32;20085;-68
2022/08/18 14:42:09;;;;;;;8.23;3.10;;;;;;;;;;4377870;32;20085;-68
2022/08/18 14:44:35;;;;;;;6.03;3.00;;;;;;;;;;4353076;32;20094;-66
2022/08/18 14:47:02;;;;;;;3.90;3.00;;;;;;;;;;4378544;32;20515;-67
2022/08/18 14:49:30;;;;;;;5.03;3.17;;;;;;;;;;4366250;32;20078;-66
2022/08/18 14:51:58;;;;;;;7.65;3.40;;;;;;;;;;4392840;32;20082;-66
2022/08/18 14:54:25;;;;;;;5.07;3.25;;;;;;;;;;4365836;32;20093;-66
2022/08/18 14:56:51;;;;;;;10.07;4.43;;;;;;;;;;4365579;32;20162;-68
2022/08/18 14:59:18;;;;;;;6.62;2.87;;;;;;;;;;4378232;32;20069;-67
2022/08/18 15:01:45;;;;;;;8.10;3.08;;;;;;;;;;4378279;32;20069;-67
2022/08/18 15:04:13;;;;;;;6.20;3.20;;;;;;;;;;4377431;32;20515;-66
2022/08/18 15:06:40;;;;;;;6.95;3.20;;;;;;;;;;4391869;32;20072;-68
2022/08/18 15:09:08;;;;;;;8.00;3.40;;;;;;;;;;4392079;32;20151;-67
2022/08/18 15:11:35;;;;;;;10.35;3.62;;;;;;;;;;4352509;32;20085;-66
2022/08/18 15:14:01;;;;;;;9.35;4.05;;;;;;;;;;4377667;32;20098;-67
2022/08/18 15:16:32;;;;;;;9.40;3.62;;;;;;;;;;4392088;32;20077;-66
2022/08/18 15:18:59;;;;;;;7.60;3.40;;;;;;;;;;4365425;32;20154;-68
2022/08/18 15:26:59;;;;;;;7.00;4.03;;;;;;;;;;4367607;32;20074;-67
2022/08/18 15:29:26;;;;;;;8.90;4.12;;;;;;;;;;4391941;32;20077;-67
2022/08/18 15:31:53;;;;;;;7.10;3.75;;;;;;;;;;4365763;32;20078;-67
2022/08/18 15:34:20;;;;;;;5.82;3.62;;;;;;;;;;4391654;32;20078;-67
2022/08/18 15:36:48;;;;;;;9.55;3.87;;;;;;;;;;4391552;32;20089;-67
2022/08/18 15:39:15;;;;;;;6.72;3.62;;;;;;;;;;4391904;32;20511;-68
2022/08/18 15:41:47;;;;;;;7.00;4.12;;;;;;;;;;4377633;32;20089;-68
2022/08/18 15:44:16;;;;;;;6.62;3.67;;;;;;;;;;4391514;32;20073;-66
2022/08/18 15:46:43;;;;;;;5.00;3.22;;;;;;;;;;4377263;32;20172;-66
2022/08/18 15:49:09;;;;;;;6.93;3.10;;;;;;;;;;4377522;32;20082;-67
2022/08/18 15:54:12;;;;;;;7.33;4.00;;;;;;;;;;3855927;37;20078;-66
2022/08/18 15:56:38;;;;;;;7.72;3.67;;;;;;;;;;4418469;32;20097;-67
2022/08/18 15:59:08;;;;;;;10.48;4.05;;;;;;;;;;4405557;32;20541;-67